sensor_id;sensor_type;location;lat;lon;timestamp;pressure;altitude;pressure_sealevel;temperature;humidity
11099;BME280;12223;42.650;23.364;2023-07-20T00:02:08;94422.03;;;23.56;86.14
11099;BME280;12223;42.650;23.364;2023-07-20T00:04:35;94431.66;;;23.48;85.16
11099;BME280;12223;42.650;23.364;2023-07-20T00:07:04;94438.00;;;23.52;85.22
11099;BME280;12223;42.650;23.364;2023-07-20T00:09:31;94432.81;;;23.56;87.36
11099;BME280;12223;42.650;23.364;2023-07-20T00:11:59;94418.09;;;23.40;88.68
11099;BME280;12223;42.650;23.364;2023-07-20T00:14:26;94414.72;;;23.34;90.92
11099;BME280;12223;42.650;23.364;2023-07-20T00:16:55;94428.28;;;23.20;93.37
11099;BME280;12223;42.650;23.364;2023-07-20T00:19:23;94425.28;;;23.00;93.30
11099;BME280;12223;42.650;23.364;2023-07-20T00:21:50;94434.19;;;23.09;93.79
11099;BME280;12223;42.650;23.364;2023-07-20T00:24:17;94427.28;;;22.94;95.47
11099;BME280;12223;42.650;23.364;2023-07-20T00:26:44;94418.63;;;22.83;94.67
11099;BME280;12223;42.650;23.364;2023-07-20T00:29:12;94421.16;;;22.80;94.04
11099;BME280;12223;42.650;23.364;2023-07-20T00:31:39;94420.06;;;22.81;93.32
11099;BME280;12223;42.650;23.364;2023-07-20T00:34:06;94414.72;;;22.90;93.74
11099;BME280;12223;42.650;23.364;2023-07-20T00:36:32;94416.31;;;22.91;92.87
11099;BME280;12223;42.650;23.364;2023-07-20T00:38:59;94413.19;;;22.97;92.13
11099;BME280;12223;42.650;23.364;2023-07-20T00:41:26;94417.91;;;22.92;92.97
11099;BME280;12223;42.650;23.364;2023-07-20T00:43:55;94421.91;;;22.94;92.81
11099;BME280;12223;42.650;23.364;2023-07-20T00:46:23;94404.94;;;22.94;92.71
11099;BME280;12223;42.650;23.364;2023-07-20T00:48:51;94399.69;;;22.89;93.77
11099;BME280;12223;42.650;23.364;2023-07-20T00:51:19;94403.22;;;22.98;93.57
11099;BME280;12223;42.650;23.364;2023-07-20T00:53:46;94406.03;;;22.93;93.09
11099;BME280;12223;42.650;23.364;2023-07-20T00:56:14;94408.66;;;22.70;96.81
11099;BME280;12223;42.650;23.364;2023-07-20T00:58:41;94400.69;;;22.43;100.00
11099;BME280;12223;42.650;23.364;2023-07-20T01:01:28;94394.91;;;22.36;100.00
11099;BME280;12223;42.650;23.364;2023-07-20T01:03:55;94394.91;;;22.36;100.00
11099;BME280;12223;42.650;23.364;2023-07-20T01:06:29;94395.50;;;22.33;100.00
11099;BME280;12223;42.650;23.364;2023-07-20T01:09:04;94401.09;;;22.36;100.00
11099;BME280;12223;42.650;23.364;2023-07-20T01:11:38;94403.88;;;22.31;100.00
11099;BME280;12223;42.650;23.364;2023-07-20T01:14:05;94414.84;;;22.08;100.00
11099;BME280;12223;42.650;23.364;2023-07-20T01:16:34;94418.91;;;21.91;100.00
11099;BME280;12223;42.650;23.364;2023-07-20T01:19:01;94421.19;;;21.71;100.00
11099;BME280;12223;42.650;23.364;2023-07-20T01:21:31;94414.69;;;21.58;100.00
11099;BME280;12223;42.650;23.364;2023-07-20T01:27:26;94412.22;;;21.61;100.00
11099;BME280;12223;42.650;23.364;2023-07-20T01:30:13;94411.53;;;21.56;100.00
11099;BME280;12223;42.650;23.364;2023-07-20T01:32:44;94402.91;;;21.40;100.00
11099;BME280;12223;42.650;23.364;2023-07-20T01:35:13;94402.91;;;21.40;100.00
11099;BME280;12223;42.650;23.364;2023-07-20T01:37:43;94407.16;;;21.27;100.00
11099;BME280;12223;42.650;23.364;2023-07-20T01:40:13;94412.75;;;21.31;100.00
11099;BME280;12223;42.650;23.364;2023-07-20T01:42:44;94422.09;;;21.34;100.00
11099;BME280;12223;42.650;23.364;2023-07-20T01:45:12;94415.75;;;21.30;100.00
11099;BME280;12223;42.650;23.364;2023-07-20T01:47:39;94413.34;;;21.28;100.00
11099;BME280;12223;42.650;23.364;2023-07-20T01:50:08;94405.16;;;21.19;100.00
11099;BME280;12223;42.650;23.364;2023-07-20T01:52:35;94402.97;;;21.21;100.00
11099;BME280;12223;42.650;23.364;2023-07-20T01:55:02;94398.19;;;21.18;100.00
11099;BME280;12223;42.650;23.364;2023-07-20T01:57:29;94405.00;;;21.11;100.00
11099;BME280;12223;42.650;23.364;2023-07-20T01:59:56;94411.75;;;21.08;100.00
11099;BME280;12223;42.650;23.364;2023-07-20T02:02:26;94400.72;;;21.10;100.00
11099;BME280;12223;42.650;23.364;2023-07-20T02:04:53;94390.13;;;21.00;100.00
11099;BME280;12223;42.650;23.364;2023-07-20T02:07:21;94393.63;;;21.00;100.00
11099;BME280;12223;42.650;23.364;2023-07-20T02:09:48;94389.94;;;20.96;100.00
11099;BME280;12223;42.650;23.364;2023-07-20T02:12:15;94400.97;;;20.95;100.00
11099;BME280;12223;42.650;23.364;2023-07-20T02:14:42;94390.03;;;20.91;100.00
11099;BME280;12223;42.650;23.364;2023-07-20T02:17:09;94392.84;;;20.81;100.00
11099;BME280;12223;42.650;23.364;2023-07-20T02:19:37;94389.00;;;20.68;100.00
11099;BME280;12223;42.650;23.364;2023-07-20T02:22:04;94390.78;;;20.59;100.00
11099;BME280;12223;42.650;23.364;2023-07-20T02:24:33;94395.06;;;20.60;100.00
11099;BME280;12223;42.650;23.364;2023-07-20T02:27:00;94392.56;;;20.64;100.00
11099;BME280;12223;42.650;23.364;2023-07-20T02:29:27;94388.38;;;20.58;100.00
11099;BME280;12223;42.650;23.364;2023-07-20T02:31:54;94388.19;;;20.54;100.00
11099;BME280;12223;42.650;23.364;2023-07-20T02:34:20;94394.81;;;20.57;100.00
11099;BME280;12223;42.650;23.364;2023-07-20T02:36:47;94390.13;;;20.49;100.00
11099;BME280;12223;42.650;23.364;2023-07-20T02:39:14;94382.56;;;20.51;100.00
11099;BME280;12223;42.650;23.364;2023-07-20T02:41:42;94382.84;;;20.49;100.00
11099;BME280;12223;42.650;23.364;2023-07-20T02:44:09;94378.16;;;20.41;100.00
11099;BME280;12223;42.650;23.364;2023-07-20T02:46:37;94349.13;;;20.24;100.00
11099;BME280;12223;42.650;23.364;2023-07-20T02:49:03;94362.75;;;20.28;100.00
11099;BME280;12223;42.650;23.364;2023-07-20T02:51:30;94357.03;;;20.16;100.00
11099;BME280;12223;42.650;23.364;2023-07-20T02:53:57;94347.22;;;20.06;100.00
11099;BME280;12223;42.650;23.364;2023-07-20T02:56:24;94332.09;;;19.96;100.00
11099;BME280;12223;42.650;23.364;2023-07-20T02:58:52;94343.59;;;19.97;100.00
11099;BME280;12223;42.650;23.364;2023-07-20T03:01:19;94351.13;;;19.95;100.00
11099;BME280;12223;42.650;23.364;2023-07-20T03:03:46;94342.19;;;19.81;100.00
11099;BME280;12223;42.650;23.364;2023-07-20T03:06:13;94344.31;;;19.84;100.00
11099;BME280;12223;42.650;23.364;2023-07-20T03:08:40;94345.72;;;19.76;100.00
11099;BME280;12223;42.650;23.364;2023-07-20T03:11:13;94348.41;;;19.76;100.00
11099;BME280;12223;42.650;23.364;2023-07-20T03:13:40;94348.19;;;19.73;100.00
11099;BME280;12223;42.650;23.364;2023-07-20T03:16:09;94354.28;;;19.78;100.00
11099;BME280;12223;42.650;23.364;2023-07-20T03:18:37;94351.91;;;19.77;100.00
11099;BME280;12223;42.650;23.364;2023-07-20T03:21:05;94371.72;;;19.76;100.00
11099;BME280;12223;42.650;23.364;2023-07-20T03:23:32;94379.00;;;19.94;100.00
11099;BME280;12223;42.650;23.364;2023-07-20T03:25:58;94376.06;;;19.95;100.00
11099;BME280;12223;42.650;23.364;2023-07-20T03:28:25;94364.53;;;19.95;100.00
11099;BME280;12223;42.650;23.364;2023-07-20T03:30:54;94375.34;;;20.08;100.00
11099;BME280;12223;42.650;23.364;2023-07-20T03:33:26;94388.84;;;20.22;100.00
11099;BME280;12223;42.650;23.364;2023-07-20T03:35:55;94388.38;;;20.39;100.00
11099;BME280;12223;42.650;23.364;2023-07-20T03:38:22;94383.59;;;20.55;100.00
11099;BME280;12223;42.650;23.364;2023-07-20T03:40:49;94380.22;;;20.81;100.00
11099;BME280;12223;42.650;23.364;2023-07-20T03:43:17;94392.03;;;21.18;100.00
11099;BME280;12223;42.650;23.364;2023-07-20T03:45:44;94396.09;;;21.61;100.00
11099;BME280;12223;42.650;23.364;2023-07-20T03:48:13;94397.31;;;22.10;100.00
11099;BME280;12223;42.650;23.364;2023-07-20T03:50:41;94396.75;;;22.63;100.00
11099;BME280;12223;42.650;23.364;2023-07-20T03:53:08;94408.06;;;23.09;100.00
11099;BME280;12223;42.650;23.364;2023-07-20T03:55:35;94410.59;;;23.50;100.00
11099;BME280;12223;42.650;23.364;2023-07-20T03:58:02;94414.06;;;23.82;100.00
11099;BME280;12223;42.650;23.364;2023-07-20T04:00:28;94401.72;;;24.29;100.00
11099;BME280;12223;42.650;23.364;2023-07-20T04:02:55;94415.31;;;24.80;94.89
11099;BME280;12223;42.650;23.364;2023-07-20T04:05:22;94417.84;;;25.46;88.39
11099;BME280;12223;42.650;23.364;2023-07-20T04:07:50;94418.59;;;26.19;81.47
11099;BME280;12223;42.650;23.364;2023-07-20T04:10:18;94405.97;;;26.81;76.68
11099;BME280;12223;42.650;23.364;2023-07-20T04:12:45;94398.69;;;27.36;69.20
11099;BME280;12223;42.650;23.364;2023-07-20T04:15:12;94398.75;;;27.93;64.93
11099;BME280;12223;42.650;23.364;2023-07-20T04:17:39;94405.47;;;28.68;61.10
11099;BME280;12223;42.650;23.364;2023-07-20T04:20:07;94404.34;;;29.34;57.39
11099;BME280;12223;42.650;23.364;2023-07-20T04:22:34;94404.38;;;29.93;54.85
11099;BME280;12223;42.650;23.364;2023-07-20T04:25:03;94397.34;;;30.23;52.32
11099;BME280;12223;42.650;23.364;2023-07-20T04:27:30;94396.41;;;30.16;52.48
11099;BME280;12223;42.650;23.364;2023-07-20T04:29:58;94395.47;;;29.80;53.81
11099;BME280;12223;42.650;23.364;2023-07-20T04:32:25;94393.09;;;28.71;56.59
11099;BME280;12223;42.650;23.364;2023-07-20T04:34:52;94405.53;;;27.87;61.27
11099;BME280;12223;42.650;23.364;2023-07-20T04:37:18;94400.53;;;27.89;61.53
11099;BME280;12223;42.650;23.364;2023-07-20T04:39:45;94396.97;;;28.46;60.49
11099;BME280;12223;42.650;23.364;2023-07-20T04:42:14;94385.88;;;28.63;57.57
11099;BME280;12223;42.650;23.364;2023-07-20T04:44:40;94383.06;;;29.11;56.94
11099;BME280;12223;42.650;23.364;2023-07-20T04:47:07;94379.19;;;29.68;54.60
11099;BME280;12223;42.650;23.364;2023-07-20T04:49:34;94387.59;;;30.54;51.58
11099;BME280;12223;42.650;23.364;2023-07-20T04:52:02;94387.66;;;31.27;47.74
11099;BME280;12223;42.650;23.364;2023-07-20T04:54:29;94385.41;;;31.71;45.89
11099;BME280;12223;42.650;23.364;2023-07-20T04:56:55;94388.13;;;32.36;44.15
11099;BME280;12223;42.650;23.364;2023-07-20T04:59:24;94401.66;;;33.04;40.55
11099;BME280;12223;42.650;23.364;2023-07-20T05:01:50;94391.16;;;34.54;38.22
11099;BME280;12223;42.650;23.364;2023-07-20T05:04:18;94384.72;;;35.67;35.41
11099;BME280;12223;42.650;23.364;2023-07-20T05:06:45;94384.13;;;36.80;33.50
11099;BME280;12223;42.650;23.364;2023-07-20T05:09:11;94392.25;;;37.33;31.89
11099;BME280;12223;42.650;23.364;2023-07-20T05:11:38;94395.47;;;38.67;30.20
11099;BME280;12223;42.650;23.364;2023-07-20T05:14:07;94385.81;;;39.60;28.63
11099;BME280;12223;42.650;23.364;2023-07-20T05:16:35;94398.56;;;40.15;27.36
11099;BME280;12223;42.650;23.364;2023-07-20T05:19:03;94398.66;;;40.85;26.03
11099;BME280;12223;42.650;23.364;2023-07-20T05:21:30;94400.88;;;41.17;25.65
11099;BME280;12223;42.650;23.364;2023-07-20T05:23:57;94395.56;;;41.03;25.57
11099;BME280;12223;42.650;23.364;2023-07-20T05:26:24;94395.81;;;41.12;25.86
11099;BME280;12223;42.650;23.364;2023-07-20T05:28:50;94405.44;;;41.27;24.98
11099;BME280;12223;42.650;23.364;2023-07-20T05:31:17;94398.94;;;40.67;24.99
11099;BME280;12223;42.650;23.364;2023-07-20T05:33:45;94397.03;;;40.37;26.12
11099;BME280;12223;42.650;23.364;2023-07-20T05:36:24;94408.75;;;39.23;26.65
11099;BME280;12223;42.650;23.364;2023-07-20T05:38:52;94400.63;;;38.06;28.08
11099;BME280;12223;42.650;23.364;2023-07-20T05:41:19;94395.47;;;37.03;29.83
11099;BME280;12223;42.650;23.364;2023-07-20T05:43:46;94402.97;;;36.42;30.48
11099;BME280;12223;42.650;23.364;2023-07-20T05:46:12;94407.97;;;35.83;32.09
11099;BME280;12223;42.650;23.364;2023-07-20T05:48:39;94412.19;;;35.53;32.91
11099;BME280;12223;42.650;23.364;2023-07-20T05:51:07;94417.97;;;35.37;32.84
11099;BME280;12223;42.650;23.364;2023-07-20T05:53:35;94412.75;;;35.14;33.60
11099;BME280;12223;42.650;23.364;2023-07-20T05:56:02;94412.19;;;34.91;34.29
11099;BME280;12223;42.650;23.364;2023-07-20T05:58:29;94414.47;;;33.60;36.09
11099;BME280;12223;42.650;23.364;2023-07-20T06:00:56;94423.66;;;32.85;37.08
11099;BME280;12223;42.650;23.364;2023-07-20T06:03:23;94401.53;;;31.99;39.02
11099;BME280;12223;42.650;23.364;2023-07-20T06:05:50;94394.06;;;31.00;41.48
11099;BME280;12223;42.650;23.364;2023-07-20T06:08:18;94401.03;;;30.47;43.76
11099;BME280;12223;42.650;23.364;2023-07-20T06:10:50;94398.94;;;30.09;45.52
11099;BME280;12223;42.650;23.364;2023-07-20T06:13:17;94399.59;;;29.74;46.63
11099;BME280;12223;42.650;23.364;2023-07-20T06:15:44;94401.16;;;29.91;46.59
11099;BME280;12223;42.650;23.364;2023-07-20T06:18:11;94400.09;;;30.08;46.20
11099;BME280;12223;42.650;23.364;2023-07-20T06:20:38;94396.66;;;30.11;46.13
11099;BME280;12223;42.650;23.364;2023-07-20T06:23:05;94398.84;;;30.05;46.05
11099;BME280;12223;42.650;23.364;2023-07-20T06:25:33;94391.56;;;30.25;46.66
11099;BME280;12223;42.650;23.364;2023-07-20T06:28:00;94373.00;;;30.46;47.85
11099;BME280;12223;42.650;23.364;2023-07-20T06:30:26;94376.84;;;30.61;47.58
11099;BME280;12223;42.650;23.364;2023-07-20T06:32:53;94367.28;;;30.86;44.89
11099;BME280;12223;42.650;23.364;2023-07-20T06:35:20;94381.91;;;30.78;45.52
11099;BME280;12223;42.650;23.364;2023-07-20T06:37:47;94379.81;;;30.71;45.44
11099;BME280;12223;42.650;23.364;2023-07-20T06:40:14;94380.56;;;30.88;45.02
11099;BME280;12223;42.650;23.364;2023-07-20T06:42:42;94373.97;;;30.54;44.71
11099;BME280;12223;42.650;23.364;2023-07-20T06:45:09;94377.16;;;30.09;46.43
11099;BME280;12223;42.650;23.364;2023-07-20T06:47:38;94371.88;;;30.16;45.71
11099;BME280;12223;42.650;23.364;2023-07-20T06:50:06;94380.75;;;30.28;46.23
11099;BME280;12223;42.650;23.364;2023-07-20T06:52:33;94375.81;;;30.34;46.25
11099;BME280;12223;42.650;23.364;2023-07-20T06:55:00;94378.53;;;30.65;44.87
11099;BME280;12223;42.650;23.364;2023-07-20T06:57:27;94379.00;;;30.52;45.62
11099;BME280;12223;42.650;23.364;2023-07-20T06:59:55;94375.22;;;30.25;45.84
11099;BME280;12223;42.650;23.364;2023-07-20T07:02:22;94393.47;;;29.93;48.92
11099;BME280;12223;42.650;23.364;2023-07-20T07:04:49;94403.63;;;29.65;49.21
11099;BME280;12223;42.650;23.364;2023-07-20T07:07:15;94414.50;;;29.65;51.84
11099;BME280;12223;42.650;23.364;2023-07-20T07:09:42;94408.00;;;29.69;49.42
11099;BME280;12223;42.650;23.364;2023-07-20T07:12:09;94412.00;;;29.59;51.24
11099;BME280;12223;42.650;23.364;2023-07-20T07:14:36;94401.69;;;29.37;53.41
11099;BME280;12223;42.650;23.364;2023-07-20T07:17:05;94421.03;;;29.48;53.71
11099;BME280;12223;42.650;23.364;2023-07-20T07:19:32;94422.66;;;28.85;55.23
11099;BME280;12223;42.650;23.364;2023-07-20T07:21:59;94436.41;;;28.76;57.11
11099;BME280;12223;42.650;23.364;2023-07-20T07:24:26;94442.72;;;28.80;56.87
11099;BME280;12223;42.650;23.364;2023-07-20T07:26:53;94451.97;;;29.03;52.22
11099;BME280;12223;42.650;23.364;2023-07-20T07:29:20;94457.84;;;29.17;53.33
11099;BME280;12223;42.650;23.364;2023-07-20T07:31:46;94447.97;;;29.53;52.68
11099;BME280;12223;42.650;23.364;2023-07-20T07:34:15;94451.63;;;29.57;51.99
11099;BME280;12223;42.650;23.364;2023-07-20T07:36:41;94440.78;;;29.33;52.82
11099;BME280;12223;42.650;23.364;2023-07-20T07:39:08;94435.19;;;29.13;55.73
11099;BME280;12223;42.650;23.364;2023-07-20T07:41:35;94433.66;;;29.28;53.28
11099;BME280;12223;42.650;23.364;2023-07-20T07:44:02;94431.44;;;29.18;53.25
11099;BME280;12223;42.650;23.364;2023-07-20T07:46:29;94426.72;;;28.91;54.54
11099;BME280;12223;42.650;23.364;2023-07-20T07:48:56;94438.66;;;28.62;58.70
11099;BME280;12223;42.650;23.364;2023-07-20T07:51:24;94429.78;;;28.65;57.27
11099;BME280;12223;42.650;23.364;2023-07-20T07:53:52;94404.47;;;28.24;57.77
11099;BME280;12223;42.650;23.364;2023-07-20T07:56:20;94393.25;;;28.50;58.41
11099;BME280;12223;42.650;23.364;2023-07-20T07:58:48;94386.91;;;28.34;57.21
11099;BME280;12223;42.650;23.364;2023-07-20T08:01:15;94395.19;;;28.50;56.42
11099;BME280;12223;42.650;23.364;2023-07-20T08:03:42;94404.72;;;28.31;57.29
11099;BME280;12223;42.650;23.364;2023-07-20T08:06:11;94385.00;;;28.47;57.31
11099;BME280;12223;42.650;23.364;2023-07-20T08:08:39;94406.84;;;28.50;57.36
11099;BME280;12223;42.650;23.364;2023-07-20T08:11:06;94413.72;;;28.84;56.47
11099;BME280;12223;42.650;23.364;2023-07-20T08:13:33;94430.91;;;29.00;57.69
11099;BME280;12223;42.650;23.364;2023-07-20T08:16:00;94441.00;;;29.00;57.05
11099;BME280;12223;42.650;23.364;2023-07-20T08:18:27;94454.03;;;28.94;58.47
11099;BME280;12223;42.650;23.364;2023-07-20T08:20:54;94449.59;;;28.90;57.83
11099;BME280;12223;42.650;23.364;2023-07-20T08:23:21;94444.97;;;28.54;59.49
11099;BME280;12223;42.650;23.364;2023-07-20T08:25:49;94447.69;;;28.29;60.77
11099;BME280;12223;42.650;23.364;2023-07-20T08:28:16;94449.50;;;28.25;62.68
11099;BME280;12223;42.650;23.364;2023-07-20T08:30:45;94431.63;;;28.24;63.51
11099;BME280;12223;42.650;23.364;2023-07-20T08:33:13;94432.88;;;28.39;65.58
11099;BME280;12223;42.650;23.364;2023-07-20T08:35:40;94440.88;;;28.72;64.42
11099;BME280;12223;42.650;23.364;2023-07-20T08:38:09;94448.41;;;29.15;61.31
11099;BME280;12223;42.650;23.364;2023-07-20T08:40:41;94446.81;;;29.26;58.88
11099;BME280;12223;42.650;23.364;2023-07-20T08:43:10;94438.91;;;29.09;56.53
11099;BME280;12223;42.650;23.364;2023-07-20T08:45:39;94437.63;;;29.31;53.87
11099;BME280;12223;42.650;23.364;2023-07-20T08:48:06;94438.69;;;29.54;50.73
11099;BME280;12223;42.650;23.364;2023-07-20T08:50:34;94439.78;;;29.25;50.49
11099;BME280;12223;42.650;23.364;2023-07-20T08:53:02;94437.06;;;28.85;52.06
11099;BME280;12223;42.650;23.364;2023-07-20T08:55:29;94432.38;;;28.98;51.68
11099;BME280;12223;42.650;23.364;2023-07-20T08:57:58;94414.97;;;28.87;51.49
11099;BME280;12223;42.650;23.364;2023-07-20T09:00:27;94426.81;;;29.06;50.23
11099;BME280;12223;42.650;23.364;2023-07-20T09:02:55;94422.09;;;28.67;50.07
11099;BME280;12223;42.650;23.364;2023-07-20T09:05:24;94416.88;;;28.13;49.69
11099;BME280;12223;42.650;23.364;2023-07-20T09:07:51;94418.50;;;28.26;51.17
11099;BME280;12223;42.650;23.364;2023-07-20T09:10:20;94408.28;;;27.99;50.82
11099;BME280;12223;42.650;23.364;2023-07-20T09:12:47;94415.03;;;27.81;51.66
11099;BME280;12223;42.650;23.364;2023-07-20T09:15:14;94413.13;;;27.81;51.20
11099;BME280;12223;42.650;23.364;2023-07-20T09:17:47;94411.38;;;27.77;51.14
11099;BME280;12223;42.650;23.364;2023-07-20T09:20:15;94404.06;;;27.89;51.06
11099;BME280;12223;42.650;23.364;2023-07-20T09:22:42;94411.00;;;27.99;52.14
11099;BME280;12223;42.650;23.364;2023-07-20T09:25:12;94404.34;;;28.33;50.39
11099;BME280;12223;42.650;23.364;2023-07-20T09:27:40;94404.78;;;28.59;49.55
11099;BME280;12223;42.650;23.364;2023-07-20T09:30:08;94398.91;;;28.69;49.05
11099;BME280;12223;42.650;23.364;2023-07-20T09:32:39;94401.97;;;28.56;49.16
11099;BME280;12223;42.650;23.364;2023-07-20T09:35:12;94405.09;;;28.94;48.57
11099;BME280;12223;42.650;23.364;2023-07-20T09:37:41;94409.16;;;29.40;46.18
11099;BME280;12223;42.650;23.364;2023-07-20T09:40:08;94416.88;;;29.38;43.91
11099;BME280;12223;42.650;23.364;2023-07-20T09:42:36;94405.41;;;29.05;44.62
11099;BME280;12223;42.650;23.364;2023-07-20T09:45:07;94400.84;;;29.21;44.39
11099;BME280;12223;42.650;23.364;2023-07-20T09:47:36;94400.03;;;29.21;43.66
11099;BME280;12223;42.650;23.364;2023-07-20T09:50:04;94384.34;;;29.30;42.42
11099;BME280;12223;42.650;23.364;2023-07-20T09:52:37;94387.38;;;29.68;41.87
11099;BME280;12223;42.650;23.364;2023-07-20T09:55:05;94382.50;;;30.21;40.58
11099;BME280;12223;42.650;23.364;2023-07-20T09:57:33;94382.44;;;30.68;40.28
11099;BME280;12223;42.650;23.364;2023-07-20T10:00:00;94364.69;;;30.74;41.04
11099;BME280;12223;42.650;23.364;2023-07-20T10:02:33;94356.09;;;30.72;41.91
11099;BME280;12223;42.650;23.364;2023-07-20T10:05:03;94351.75;;;31.06;39.60
11099;BME280;12223;42.650;23.364;2023-07-20T10:07:30;94358.97;;;31.37;39.04
11099;BME280;12223;42.650;23.364;2023-07-20T10:10:01;94362.28;;;31.65;38.52
11099;BME280;12223;42.650;23.364;2023-07-20T10:12:29;94359.41;;;31.58;36.61
11099;BME280;12223;42.650;23.364;2023-07-20T10:15:02;94366.31;;;31.13;36.46
11099;BME280;12223;42.650;23.364;2023-07-20T10:17:31;94364.97;;;31.23;36.57
11099;BME280;12223;42.650;23.364;2023-07-20T10:20:00;94354.63;;;31.32;36.85
11099;BME280;12223;42.650;23.364;2023-07-20T10:22:34;94366.16;;;31.45;35.58
11099;BME280;12223;42.650;23.364;2023-07-20T10:25:04;94348.94;;;31.02;35.23
11099;BME280;12223;42.650;23.364;2023-07-20T10:27:32;94373.56;;;31.25;36.15
11099;BME280;12223;42.650;23.364;2023-07-20T10:29:59;94378.72;;;31.30;36.70
11099;BME280;12223;42.650;23.364;2023-07-20T10:32:28;94375.16;;;31.26;37.00
11099;BME280;12223;42.650;23.364;2023-07-20T10:34:56;94374.50;;;31.33;36.54
11099;BME280;12223;42.650;23.364;2023-07-20T10:37:48;94369.09;;;31.55;36.63
11099;BME280;12223;42.650;23.364;2023-07-20T10:40:28;94369.75;;;31.49;35.83
11099;BME280;12223;42.650;23.364;2023-07-20T10:43:05;94367.16;;;31.56;36.33
11099;BME280;12223;42.650;23.364;2023-07-20T10:45:39;94364.41;;;31.56;36.67
11099;BME280;12223;42.650;23.364;2023-07-20T10:48:13;94356.03;;;31.45;37.26
11099;BME280;12223;42.650;23.364;2023-07-20T10:50:40;94319.09;;;31.51;37.67
11099;BME280;12223;42.650;23.364;2023-07-20T10:53:12;94291.69;;;31.44;38.60
11099;BME280;12223;42.650;23.364;2023-07-20T10:55:41;94314.47;;;31.75;38.31
11099;BME280;12223;42.650;23.364;2023-07-20T10:58:10;94330.38;;;31.69;36.99
11099;BME280;12223;42.650;23.364;2023-07-20T11:00:38;94337.16;;;31.37;37.32
11099;BME280;12223;42.650;23.364;2023-07-20T11:03:29;94319.28;;;31.20;38.23
11099;BME280;12223;42.650;23.364;2023-07-20T11:05:57;94307.91;;;31.14;39.27
11099;BME280;12223;42.650;23.364;2023-07-20T11:08:45;94293.22;;;31.03;39.12
11099;BME280;12223;42.650;23.364;2023-07-20T11:11:24;94298.44;;;30.93;39.00
11099;BME280;12223;42.650;23.364;2023-07-20T11:13:58;94288.78;;;31.14;39.34
11099;BME280;12223;42.650;23.364;2023-07-20T11:16:36;94295.50;;;31.40;40.00
11099;BME280;12223;42.650;23.364;2023-07-20T11:19:04;94294.59;;;31.32;39.11
11099;BME280;12223;42.650;23.364;2023-07-20T11:21:36;94299.72;;;31.37;39.23
11099;BME280;12223;42.650;23.364;2023-07-20T11:24:04;94297.88;;;31.41;39.37
11099;BME280;12223;42.650;23.364;2023-07-20T11:26:41;94283.94;;;31.46;38.55
11099;BME280;12223;42.650;23.364;2023-07-20T11:29:08;94284.63;;;31.85;38.54
11099;BME280;12223;42.650;23.364;2023-07-20T11:31:36;94279.38;;;32.22;37.74
11099;BME280;12223;42.650;23.364;2023-07-20T11:34:03;94276.66;;;32.52;37.58
11099;BME280;12223;42.650;23.364;2023-07-20T11:36:29;94270.56;;;32.62;37.59
11099;BME280;12223;42.650;23.364;2023-07-20T11:38:58;94263.50;;;32.61;37.53
11099;BME280;12223;42.650;23.364;2023-07-20T11:41:25;94272.66;;;32.72;37.09
11099;BME280;12223;42.650;23.364;2023-07-20T11:43:54;94257.78;;;32.70;37.02
11099;BME280;12223;42.650;23.364;2023-07-20T11:46:20;94258.78;;;32.88;37.06
11099;BME280;12223;42.650;23.364;2023-07-20T11:48:47;94262.50;;;32.73;36.85
11099;BME280;12223;42.650;23.364;2023-07-20T11:51:15;94258.38;;;32.56;37.03
11099;BME280;12223;42.650;23.364;2023-07-20T11:53:43;94247.50;;;32.33;38.09
11099;BME280;12223;42.650;23.364;2023-07-20T11:56:10;94254.09;;;32.06;38.53
11099;BME280;12223;42.650;23.364;2023-07-20T11:58:41;94246.19;;;31.98;39.16
11099;BME280;12223;42.650;23.364;2023-07-20T12:01:11;94252.53;;;31.79;39.85
11099;BME280;12223;42.650;23.364;2023-07-20T12:03:38;94247.09;;;31.82;40.11
11099;BME280;12223;42.650;23.364;2023-07-20T12:06:06;94243.28;;;31.41;40.40
11099;BME280;12223;42.650;23.364;2023-07-20T12:08:34;94227.03;;;31.48;40.12
11099;BME280;12223;42.650;23.364;2023-07-20T12:11:01;94230.00;;;31.63;41.21
11099;BME280;12223;42.650;23.364;2023-07-20T12:13:36;94233.41;;;31.79;39.48
11099;BME280;12223;42.650;23.364;2023-07-20T12:16:10;94235.19;;;31.94;39.37
11099;BME280;12223;42.650;23.364;2023-07-20T12:18:38;94231.94;;;31.85;39.46
11099;BME280;12223;42.650;23.364;2023-07-20T12:21:06;94223.31;;;32.09;38.76
11099;BME280;12223;42.650;23.364;2023-07-20T12:23:37;94229.69;;;32.43;38.50
11099;BME280;12223;42.650;23.364;2023-07-20T12:26:07;94220.16;;;32.30;36.88
11099;BME280;12223;42.650;23.364;2023-07-20T12:28:38;94213.56;;;32.08;36.56
11099;BME280;12223;42.650;23.364;2023-07-20T12:31:05;94221.22;;;32.25;35.39
11099;BME280;12223;42.650;23.364;2023-07-20T12:33:34;94218.19;;;32.04;34.60
11099;BME280;12223;42.650;23.364;2023-07-20T12:36:01;94210.34;;;32.03;34.96
11099;BME280;12223;42.650;23.364;2023-07-20T12:38:27;94219.38;;;32.33;33.93
11099;BME280;12223;42.650;23.364;2023-07-20T12:40:56;94209.38;;;32.44;33.94
11099;BME280;12223;42.650;23.364;2023-07-20T12:43:23;94208.22;;;32.15;34.50
11099;BME280;12223;42.650;23.364;2023-07-20T12:45:51;94207.16;;;31.97;34.85
11099;BME280;12223;42.650;23.364;2023-07-20T12:48:17;94211.53;;;32.28;34.30
11099;BME280;12223;42.650;23.364;2023-07-20T12:50:46;94214.16;;;32.51;32.86
11099;BME280;12223;42.650;23.364;2023-07-20T12:53:13;94208.28;;;32.49;32.77
11099;BME280;12223;42.650;23.364;2023-07-20T12:55:40;94209.97;;;32.60;31.89
11099;BME280;12223;42.650;23.364;2023-07-20T12:58:07;94197.25;;;32.42;30.46